createdAt,value
2023-02-20T00:00:19.941Z,4.72
2023-02-20T00:05:29.517Z,5.13
2023-02-20T00:10:31.285Z,5.30
2023-02-20T00:15:37.709Z,5.13
2023-02-20T00:20:39.526Z,5.63
2023-02-20T00:25:41.462Z,5.38
2023-02-20T00:30:44.436Z,5.32
2023-02-20T00:35:47.342Z,4.85
2023-02-20T00:40:49.408Z,4.82
2023-02-20T00:45:51.261Z,5.20
2023-02-20T00:50:53.358Z,5.28
2023-02-20T00:55:56.242Z,5.30
2023-02-20T01:00:58.737Z,5.60
2023-02-20T01:06:00.533Z,5.38
2023-02-20T01:11:02.521Z,5.60
2023-02-20T01:16:06.327Z,6.10
2023-02-20T01:21:08.220Z,5.60
2023-02-20T01:26:10.157Z,5.28
2023-02-20T01:31:14.186Z,5.50
2023-02-20T01:36:16.347Z,5.10
2023-02-20T01:41:18.981Z,4.68
2023-02-20T01:46:29.598Z,4.28
2023-02-20T01:51:39.003Z,3.78
2023-02-20T01:56:46.161Z,4.60
2023-02-20T02:01:48.998Z,4.50
2023-02-20T02:06:53.003Z,4.10
2023-02-20T02:11:56.845Z,3.85
2023-02-20T02:17:30.349Z,4.30
2023-02-20T02:23:05.037Z,3.95
2023-02-20T02:28:28.489Z,3.60
2023-02-20T02:33:36.258Z,4.22
2023-02-20T02:39:11.931Z,3.80
2023-02-20T02:44:32.498Z,3.92
2023-02-20T02:49:38.042Z,4.50
2023-02-20T02:54:40.093Z,3.80
2023-02-20T02:59:42.737Z,3.53
2023-02-20T03:04:49.819Z,3.58
2023-02-20T03:10:05.310Z,3.92
2023-02-20T03:15:38.017Z,4.30
2023-02-20T03:20:43.925Z,4.10
2023-02-20T03:26:07.546Z,4.28
2023-02-20T03:31:17.739Z,5.18
2023-02-20T03:36:46.173Z,4.70
2023-02-20T03:42:07.794Z,4.85
2023-02-20T03:47:14.373Z,5.13
2023-02-20T03:52:17.063Z,5.35
2023-02-20T03:57:25.091Z,5.95
2023-02-20T04:02:31.683Z,6.72
2023-02-20T04:07:47.455Z,7.43
2023-02-20T04:12:50.763Z,6.72
2023-02-20T04:18:08.117Z,7.38
2023-02-20T04:23:18.912Z,6.75
2023-02-20T04:28:21.392Z,7.07
2023-02-20T04:33:23.476Z,7.20
2023-02-20T04:38:25.518Z,6.75
2023-02-20T04:43:27.277Z,5.93
2023-02-20T04:48:29.279Z,5.55
2023-02-20T04:53:31.058Z,6.68
2023-02-20T04:58:39.880Z,6.05
2023-02-20T05:03:42.198Z,4.85
2023-02-20T05:08:48.844Z,5.00
2023-02-20T05:13:51.994Z,5.10
2023-02-20T05:18:54.675Z,5.25
2023-02-20T05:23:56.632Z,5.10
2023-02-20T05:28:58.427Z,5.35
2023-02-20T05:34:00.426Z,5.20
2023-02-20T05:39:02.617Z,5.68
2023-02-20T05:44:05.075Z,6.03
2023-02-20T05:49:06.947Z,5.22
2023-02-20T05:54:08.995Z,5.72
2023-02-20T05:59:11.626Z,5.40
2023-02-20T06:04:13.988Z,5.05
2023-02-20T06:09:16.916Z,4.85
2023-02-20T06:14:20.064Z,4.63
2023-02-20T06:19:26.404Z,4.25
2023-02-20T06:24:29.215Z,4.00
2023-02-20T06:29:31.727Z,4.10
2023-02-20T06:34:34.167Z,4.32
2023-02-20T06:39:36.185Z,3.80
2023-02-20T06:44:38.213Z,3.90
2023-02-20T06:49:41.894Z,4.18
2023-02-20T06:54:45.944Z,4.47
2023-02-20T06:59:50.893Z,4.53
2023-02-20T07:04:52.926Z,4.50
2023-02-20T07:09:54.803Z,5.47
2023-02-20T07:14:56.754Z,5.75
2023-02-20T07:19:59.403Z,5.20
2023-02-20T07:25:01.184Z,5.55
2023-02-20T07:30:03.275Z,5.80
2023-02-20T07:35:08.869Z,5.60
2023-02-20T07:40:12.757Z,5.80
2023-02-20T07:45:14.752Z,5.75
2023-02-20T07:50:17.793Z,5.63
2023-02-20T07:55:19.921Z,5.63
2023-02-20T08:00:24.158Z,6.43
2023-02-20T08:05:29.495Z,5.72
2023-02-20T08:10:33.494Z,5.50
2023-02-20T08:15:35.236Z,5.15
2023-02-20T08:20:37.308Z,5.13
2023-02-20T08:25:39.048Z,5.38
2023-02-20T08:30:44.031Z,4.57
2023-02-20T08:35:48.501Z,4.70
2023-02-20T08:40:52.996Z,4.70
2023-02-20T08:45:55.030Z,4.40
2023-02-20T08:50:56.826Z,3.92
2023-02-20T08:55:58.848Z,4.07
2023-02-20T09:01:01.200Z,3.70
2023-02-20T09:06:03.008Z,4.05
2023-02-20T09:11:05.015Z,4.13
2023-02-20T09:16:07.146Z,3.13
2023-02-20T09:21:11.155Z,3.17
2023-02-20T09:26:13.291Z,3.10
2023-02-20T09:31:15.309Z,3.20
2023-02-20T09:36:17.203Z,2.95
2023-02-20T09:41:41.427Z,3.40
2023-02-20T09:46:47.347Z,2.67
2023-02-20T09:51:53.812Z,2.40
2023-02-20T09:57:04.328Z,2.40
2023-02-20T10:02:19.981Z,2.30
2023-02-20T10:07:42.108Z,2.22
2023-02-20T10:12:55.926Z,2.17
2023-02-20T10:18:29.169Z,2.20
2023-02-20T10:24:16.015Z,1.98
2023-02-20T10:29:31.787Z,2.17
2023-02-20T10:34:41.649Z,2.05
2023-02-20T10:39:53.242Z,1.90
2023-02-20T10:45:11.720Z,2.03
2023-02-20T10:50:25.480Z,1.73
2023-02-20T10:55:36.884Z,2.08
2023-02-20T11:00:44.359Z,1.70
2023-02-20T11:05:51.617Z,1.90
2023-02-20T11:10:57.832Z,1.95
2023-02-20T11:15:59.826Z,1.88
2023-02-20T11:21:01.748Z,1.40
2023-02-20T11:26:22.014Z,1.67
2023-02-20T11:31:25.526Z,1.70
2023-02-20T11:36:31.640Z,1.60
2023-02-20T11:41:36.694Z,1.63
2023-02-20T11:46:38.884Z,1.42
2023-02-20T11:51:41.982Z,1.30
2023-02-20T11:57:16.271Z,1.40
2023-02-20T12:02:18.242Z,1.50
2023-02-20T12:07:23.466Z,1.50
2023-02-20T12:12:33.128Z,1.33
2023-02-20T12:17:40.641Z,1.50
2023-02-20T12:22:49.225Z,1.45
2023-02-20T12:27:53.847Z,1.45
2023-02-20T12:33:01.238Z,1.45
2023-02-20T12:38:37.020Z,1.30
2023-02-20T12:44:02.166Z,1.30
2023-02-20T12:49:26.077Z,1.27
2023-02-20T12:54:33.486Z,1.20
2023-02-20T13:00:01.115Z,1.70
2023-02-20T13:05:07.964Z,1.40
2023-02-20T13:10:14.775Z,1.50
2023-02-20T13:15:32.846Z,1.63
2023-02-20T13:20:50.716Z,1.50
2023-02-20T13:25:54.247Z,1.30
2023-02-20T13:31:13.015Z,1.45
2023-02-20T13:36:39.929Z,1.60
2023-02-20T13:42:24.859Z,1.67
2023-02-20T13:47:37.845Z,1.58
2023-02-20T13:52:42.228Z,1.20
2023-02-20T14:04:00.572Z,1.73
2023-02-20T14:09:56.682Z,2.05
2023-02-20T14:21:07.229Z,1.90
2023-02-20T14:33:24.501Z,1.60
2023-02-20T14:44:53.324Z,1.58
2023-02-20T15:02:53.825Z,1.50
2023-02-20T15:08:42.966Z,1.95
2023-02-20T15:13:47.520Z,2.00
2023-02-20T15:18:50.638Z,1.88
2023-02-20T15:23:52.469Z,1.85
2023-02-20T15:29:18.999Z,2.00
2023-02-20T15:34:36.212Z,1.70
2023-02-20T15:39:41.905Z,2.13
2023-02-20T15:44:44.262Z,1.95
2023-02-20T15:49:46.174Z,1.98
2023-02-20T15:54:54.018Z,1.73
2023-02-20T15:59:56.276Z,2.08
2023-02-20T16:04:58.181Z,1.67
2023-02-20T16:09:59.953Z,1.70
2023-02-20T16:15:02.400Z,1.73
2023-02-20T16:20:15.175Z,1.88
2023-02-20T16:25:19.231Z,2.00
2023-02-20T16:30:33.330Z,1.95
2023-02-20T16:35:36.072Z,1.80
2023-02-20T16:40:37.949Z,2.22
2023-02-20T16:45:43.392Z,3.30
2023-02-20T16:50:48.519Z,4.38
2023-02-20T16:55:52.252Z,5.75
2023-02-20T17:00:57.932Z,4.72
2023-02-20T17:06:00.303Z,5.05
2023-02-20T17:11:02.129Z,5.32
2023-02-20T17:16:04.088Z,5.13
2023-02-20T17:21:08.042Z,3.25
2023-02-20T17:26:10.658Z,2.50
2023-02-20T17:31:13.411Z,2.97
2023-02-20T17:36:15.571Z,2.35
2023-02-20T17:41:19.922Z,2.33
2023-02-20T17:46:22.006Z,2.38
2023-02-20T17:51:23.705Z,2.90
2023-02-20T17:56:25.521Z,2.30
2023-02-20T18:01:27.581Z,2.65
2023-02-20T18:06:29.489Z,2.28
2023-02-20T18:11:31.696Z,2.70
2023-02-20T18:16:33.494Z,2.90
2023-02-20T18:21:37.963Z,2.88
2023-02-20T18:26:40.387Z,3.55
2023-02-20T18:31:42.263Z,3.33
2023-02-20T18:36:44.187Z,3.42
2023-02-20T18:41:54.588Z,3.60
2023-02-20T18:46:57.501Z,3.95
2023-02-20T18:51:59.232Z,3.90
2023-02-20T18:57:02.737Z,3.80
2023-02-20T19:02:05.966Z,4.40
2023-02-20T19:07:08.243Z,4.18
2023-02-20T19:12:11.900Z,4.60
2023-02-20T19:17:13.876Z,4.40
2023-02-20T19:22:17.145Z,4.88
2023-02-20T19:27:18.951Z,4.85
2023-02-20T19:32:21.290Z,3.90
2023-02-20T19:37:23.077Z,4.78
2023-02-20T19:42:26.681Z,4.55
2023-02-20T19:47:30.293Z,4.30
2023-02-20T19:52:32.232Z,4.05
2023-02-20T19:57:33.970Z,4.30
2023-02-20T20:02:35.681Z,4.65
2023-02-20T20:07:37.462Z,4.95
2023-02-20T20:12:48.459Z,4.78
2023-02-20T20:18:02.127Z,4.85
2023-02-20T20:23:05.603Z,4.88
2023-02-20T20:28:09.299Z,4.70
2023-02-20T20:33:11.488Z,5.10
2023-02-20T20:38:13.255Z,4.80
2023-02-20T20:43:16.248Z,4.43
2023-02-20T20:48:18.039Z,4.47
2023-02-20T20:53:19.940Z,4.18
2023-02-20T20:58:21.703Z,4.05
2023-02-20T21:03:25.248Z,4.07
2023-02-20T21:08:27.080Z,3.72
2023-02-20T21:13:28.842Z,3.88
2023-02-20T21:18:30.593Z,3.42
2023-02-20T21:23:32.489Z,3.60
2023-02-20T21:28:34.451Z,3.60
2023-02-20T21:33:37.429Z,2.67
2023-02-20T21:38:39.236Z,2.70
2023-02-20T21:43:59.542Z,3.00
2023-02-20T21:49:01.237Z,2.63
2023-02-20T21:54:02.967Z,2.50
2023-02-20T21:59:06.365Z,2.60
2023-02-20T22:04:11.524Z,2.83
2023-02-20T22:09:33.467Z,3.60
2023-02-20T22:14:54.547Z,2.28
2023-02-20T22:20:15.589Z,2.63
2023-02-20T22:25:36.861Z,2.72
2023-02-20T22:30:57.567Z,2.40
2023-02-20T22:36:17.842Z,2.53
2023-02-20T22:41:40.040Z,2.22
2023-02-20T22:47:00.783Z,2.03
2023-02-20T22:52:21.540Z,2.17
2023-02-20T22:57:42.045Z,2.42
2023-02-20T23:03:02.519Z,2.05
2023-02-20T23:08:24.359Z,2.15
2023-02-20T23:13:46.611Z,2.38
2023-02-20T23:19:07.942Z,2.38
2023-02-20T23:24:28.348Z,2.47
2023-02-20T23:29:49.225Z,2.90
2023-02-20T23:35:09.850Z,2.90
2023-02-20T23:40:36.396Z,2.90
2023-02-20T23:45:57.945Z,2.95
2023-02-20T23:51:18.577Z,3.03
2023-02-20T23:56:38.857Z,3.10
